YSSYYMDG

Guest
Details From YSSY - Sydney Intl
To YMDG - Mudgee
Flight Number -
Tags Generated
Created
Modified
Stats Distance 115 nm / 213 km
Max Altitude 0 ft / 0 m
Waypoints 2
Social Downloads 0
Likes 0
Share VATSIM

Download

Looking for another format? Having issues loading an existing format? Contact us
Advertisement - Login to hide

Notes

Generated

Route

YSSY YMDG

ID Type Via Altitude Latitude Longitude Leg Dist Tot Dist Heading (true) Name
O YSSY APT - 0 ft / 0 m -33.94962˚ 151.18832˚ - 0 nm - -
O YMDG APT - 0 ft / 0 m -32.55512˚ 149.61137˚ 115 nm 115 nm 316° / 317° Mudgee

Altitude Profile

Advertisement - Login to hide

YSSY

Details ICAO YSSY (SYD)
Name Sydney Intl
Region Australia
Timezone Australia/Sydney (UTC+11.0)
Stats Elevation 21 ft / 6 m (AMSL)
Location -33.949273° 151.181347°
Runways 3
Magnetic Variation 12.599° E

METAR

YSSY 140800Z 03021KT 9999 VCTS FEW090 SCT130 BKN260 FEW100CB 29/16 Q1004 FM0900 02015KT CAVOK

Decode

TAF

TAF YSSY 140522Z 1406/1512 03020KT CAVOK FM140900 01010KT CAVOK FM141500 18018G28KT 9000 HZ BKN010 FM142100 18015KT 9999 -SHRA BKN020 FM150300 15012KT 9999 SCT020 FM150800 07008KT 9999 SCT010

Decode

Departure Runways

ID Width Length Bearing (true) Bearing (mag) Surface Threshold Offset Overrun Length
07 148 ft / 45 m 8,285 ft / 2,525 m 74.13° 61.53° Asphalt 0 ft / 0 m 0 ft / 0 m
16L 148 ft / 45 m 8,018 ft / 2,444 m 167.81° 155.21° Asphalt 758 ft / 231 m 0 ft / 0 m
16R 148 ft / 45 m 13,033 ft / 3,973 m 167.86° 155.26° Asphalt 279 ft / 85 m 0 ft / 0 m
25 148 ft / 45 m 8,285 ft / 2,525 m 254.12° 241.52° Asphalt 324 ft / 99 m 0 ft / 0 m
34L 148 ft / 45 m 13,033 ft / 3,973 m 347.85° 335.25° Asphalt 0 ft / 0 m 0 ft / 0 m
34R 148 ft / 45 m 8,018 ft / 2,444 m 347.81° 335.21° Asphalt 125 ft / 38 m 0 ft / 0 m

YMDG

Details ICAO YMDG (DGE)
Name Mudgee
Region Australia
Timezone Australia/Sydney (UTC+11.0)
Stats Elevation 1,545 ft / 471 m (AMSL)
Location -32.562305° 149.610683°
Runways 2
Magnetic Variation 11.554° E

METAR

YMDG 140800Z AUTO 34005KT 9999 // NCD 33/11 Q1009

Decode

TAF

Not found

Destination Runways

ID Width Length Bearing (true) Bearing (mag) Surface Threshold Offset Overrun Length
04 98 ft / 30 m 5,699 ft / 1,737 m 52.00° 40.45° Asphalt 0 ft / 0 m 0 ft / 0 m
16 295 ft / 90 m 3,942 ft / 1,201 m 170.69° 159.14° Grass 0 ft / 0 m 0 ft / 0 m
22 98 ft / 30 m 5,699 ft / 1,737 m 232.00° 220.45° Asphalt 0 ft / 0 m 0 ft / 0 m
34 295 ft / 90 m 3,942 ft / 1,201 m 350.68° 339.13° Grass 0 ft / 0 m 0 ft / 0 m